Bampton, United Kingdom
Current Conditions -  °F | °C
As of 2:09 AM on Friday 21 Nov 2014 (Local Time) from EGVN Reporting Station
Haze Haze  
Wind Chill: 36°   Ceiling: 100
Heat Index: 41°   Visibility: 0.93mi
Dew Point: 41°   Wind: 8mph
Humidity: 100%   Direction: 50°NE
Pressure: 30.15"   Gusts: NA
Location:  51.73°N, 1.55°W
Report Text: EGVN 210209Z 05007KT 1500 BR BKN001 OVC008 05/05 Q1021 RED TEMPO 1800 FEW001 AMB
Loading
Personal Weather Stations






























Interactive Weather Map New forecast layout! Learn more

10-Day Weather Forecast

Advertisements
Track Severe Weather on mobile